Time;durP1;ratioP1;P1;durP2;ratioP2;P2;SDS_P1;SDS_P2;PMS_P1;PMS_P2;Temp;Humidity;BMP_temperature;BMP_pressure;BME280_temperature;BME280_humidity;BME280_pressure;Samples;Min_cycle;Max_cycle;Signal;HPM_P1;HPM_P2
2021/05/25 00:00:11;;;;;;;;;;;12.40;74.30;12.70;99999.00;;;;419996;23;95080;-85
2021/05/25 00:00:25;;;;;;;;;;;12.40;74.10;12.70;99995.00;;;;420670;23;83283;-85
2021/05/25 00:00:36;;;;;;;;;;;12.40;74.80;12.70;99995.00;;;;419648;23;94399;-85
2021/05/25 00:00:49;;;;;;;;;;;12.30;74.10;12.70;99993.00;;;;422827;23;82400;-85
2021/05/25 00:01:01;;;;;;;;;;;12.30;74.50;12.80;99990.00;;;;417941;23;94224;-85
2021/05/25 00:01:12;;;;;;;;;;;12.40;74.50;12.90;99985.00;;;;418686;23;83334;-85
2021/05/25 00:01:24;;;;;;;;;;;12.40;74.10;13.00;99990.00;;;;419967;23;96066;-86
2021/05/25 00:01:36;;;;;;;;;;;12.40;74.00;12.90;99987.00;;;;422741;23;83459;-85
2021/05/25 00:01:48;;;;;;;;;;;12.40;73.90;12.80;99991.00;;;;418033;23;94126;-85
2021/05/25 00:01:59;;;;;;;;;;;12.40;73.90;12.80;99992.00;;;;418632;23;82394;-86
2021/05/25 00:02:11;;;;;;;;;;;12.40;74.00;12.80;99998.00;;;;415870;23;97436;-85
2021/05/25 00:02:23;;;;;;;;;;;12.40;74.10;12.80;99995.00;;;;416972;23;83304;-85
2021/05/25 00:02:35;;;;;;;;;;;12.40;74.20;12.70;99996.00;;;;417644;23;94992;-85
2021/05/25 00:02:47;;;;;;;;;;;12.40;73.80;12.70;99990.00;;;;420598;23;83445;-85
2021/05/25 00:03:01;;;;;;;;;;;12.40;73.80;12.70;99991.00;;;;417994;23;97079;-85
2021/05/25 00:03:14;;;;;;;;;;;12.40;73.40;12.70;99994.00;;;;420229;23;83476;-85
2021/05/25 00:03:25;;;;;;;;;;;12.40;73.20;12.70;99993.00;;;;419716;23;94082;-84
2021/05/25 00:03:37;;;;;;;;;;;12.40;73.30;12.80;99992.00;;;;418843;23;83410;-85
2021/05/25 00:03:49;;;;;;;;;;;12.40;73.40;12.90;99997.00;;;;418093;23;94024;-85
2021/05/25 00:04:01;;;;;;;;;;;12.40;73.70;12.90;99986.00;;;;421100;23;83222;-85
2021/05/25 00:04:12;;;;;;;;;;;12.40;74.10;12.90;99998.00;;;;419923;23;96156;-85
2021/05/25 00:04:24;;;;;;;;;;;12.40;74.20;12.90;99996.00;;;;422769;23;82528;-85
2021/05/25 00:04:36;;;;;;;;;;;12.40;74.20;12.90;99995.00;;;;419767;23;94410;-85
2021/05/25 00:04:48;;;;;;;;;;;12.40;74.30;12.90;99994.00;;;;423072;23;83335;-86
2021/05/25 00:04:59;;;;;;;;;;;12.40;74.40;12.80;99999.00;;;;420009;23;96176;-85
2021/05/25 00:05:15;;;;;;;;;;;12.40;74.30;12.70;99996.00;;;;420851;23;82498;-85
2021/05/25 00:05:29;;;;;;;;;;;12.40;74.00;12.70;99991.00;;;;418059;23;93861;-85
2021/05/25 00:05:41;;;;;;;;;;;12.40;74.10;12.60;99992.00;;;;418677;23;83359;-86
2021/05/25 00:05:52;;;;;;;;;;;12.40;73.90;12.60;99998.00;;;;421835;23;94081;-85
2021/05/25 00:06:04;;;;;;;;;;;12.40;73.80;12.60;99985.00;;;;418636;23;83288;-85
2021/05/25 00:06:16;;;;;;;;;;;12.40;73.80;12.60;99997.00;;;;419471;23;96745;-86
2021/05/25 00:06:28;;;;;;;;;;;12.40;73.60;12.60;99994.00;;;;420810;23;82544;-86
2021/05/25 00:06:40;;;;;;;;;;;12.40;73.60;12.60;99996.00;;;;420054;23;94117;-85
2021/05/25 00:06:52;;;;;;;;;;;12.30;73.50;12.60;100001.00;;;;420518;23;82456;-85
2021/05/25 00:07:04;;;;;;;;;;;12.30;73.60;12.60;99992.00;;;;419999;23;95714;-85
2021/05/25 00:07:15;;;;;;;;;;;12.30;73.70;12.60;100000.00;;;;420860;23;83397;-85
2021/05/25 00:07:27;;;;;;;;;;;12.30;73.80;12.60;100003.00;;;;417694;23;94407;-85
2021/05/25 00:07:39;;;;;;;;;;;12.30;73.80;12.70;99992.00;;;;418522;23;83455;-86
2021/05/25 00:07:51;;;;;;;;;;;12.30;74.00;12.70;100001.00;;;;419891;23;96003;-85
2021/05/25 00:08:03;;;;;;;;;;;12.30;73.90;12.70;99995.00;;;;420584;23;83689;-85
2021/05/25 00:08:15;;;;;;;;;;;12.30;73.90;12.70;99991.00;;;;424085;22;95838;-86
2021/05/25 00:08:27;;;;;;;;;;;12.30;73.90;12.60;99999.00;;;;422943;23;83338;-85
2021/05/25 00:08:39;;;;;;;;;;;12.30;73.90;12.70;99990.00;;;;421745;23;94249;-85
2021/05/25 00:08:50;;;;;;;;;;;12.30;73.90;12.70;100001.00;;;;418948;23;82439;-85
2021/05/25 00:09:03;;;;;;;;;;;12.30;74.10;12.60;99996.00;;;;417635;23;95573;-85
2021/05/25 00:09:15;;;;;;;;;;;12.30;74.10;12.70;99998.00;;;;418728;23;82411;-85
2021/05/25 00:09:26;;;;;;;;;;;12.30;74.10;12.70;99995.00;;;;420012;23;94088;-86
2021/05/25 00:09:38;;;;;;;;;;;12.30;74.20;12.80;99992.00;;;;420451;23;83371;-85
2021/05/25 00:09:50;;;;;;;;;;;12.30;74.10;12.90;99992.00;;;;419521;23;94494;-85
2021/05/25 00:10:03;;;;;;;;;;;12.30;73.50;12.80;99987.00;;;;417107;23;82383;-85
2021/05/25 00:10:15;;;;;;;;;;;12.30;73.40;12.90;99998.00;;;;419672;23;94721;-85
2021/05/25 00:10:28;;;;;;;;;;;12.40;73.30;12.90;99991.00;;;;422710;23;83481;-85
2021/05/25 00:10:40;;;;;;;;;;;12.40;73.20;12.90;99994.00;;;;421792;23;94140;-85
2021/05/25 00:10:52;;;;;;;;;;;12.40;73.10;12.90;99997.00;;;;420719;23;83301;-85
2021/05/25 00:11:03;;;;;;;;;;;12.40;73.10;12.70;99998.00;;;;424027;22;97530;-84
2021/05/25 00:11:16;;;;;;;;;;;12.40;72.60;12.60;100004.00;;;;418636;23;83233;-85
2021/05/25 00:11:27;;;;;;;;;;;12.30;72.10;12.60;99993.00;;;;419771;23;93773;-85
2021/05/25 00:11:40;;;;;;;;;;;12.40;72.30;12.70;99997.00;;;;423139;23;83142;-85
2021/05/25 00:11:51;;;;;;;;;;;12.30;72.40;12.60;99989.00;;;;418070;23;92748;-85
2021/05/25 00:12:03;;;;;;;;;;;12.30;72.30;12.60;99994.00;;;;420710;23;83367;-85
2021/05/25 00:12:15;;;;;;;;;;;12.30;72.20;12.60;99985.00;;;;421603;23;95798;-85
2021/05/25 00:12:27;;;;;;;;;;;12.30;72.10;12.60;99990.00;;;;420570;23;83476;-85
2021/05/25 00:12:39;;;;;;;;;;;12.30;72.20;12.60;99987.00;;;;417997;23;94202;-85
2021/05/25 00:12:51;;;;;;;;;;;12.30;72.20;12.60;99993.00;;;;416746;23;83235;-85
2021/05/25 00:13:03;;;;;;;;;;;12.30;72.20;12.60;99994.00;;;;419704;23;94128;-85
2021/05/25 00:13:14;;;;;;;;;;;12.30;72.10;12.50;99996.00;;;;420744;23;83332;-85
2021/05/25 00:13:26;;;;;;;;;;;12.30;72.10;12.50;99995.00;;;;417840;23;93731;-85
2021/05/25 00:13:38;;;;;;;;;;;12.30;72.20;12.60;99993.00;;;;422703;23;83300;-85
2021/05/25 00:13:50;;;;;;;;;;;12.20;72.20;12.60;99997.00;;;;421799;23;94530;-85
2021/05/25 00:14:04;;;;;;;;;;;12.20;72.30;12.70;99999.00;;;;421086;23;83160;-85
2021/05/25 00:14:19;;;;;;;;;;;12.20;72.40;12.70;99995.00;;;;419692;23;95460;-86
2021/05/25 00:14:31;;;;;;;;;;;12.20;72.50;12.70;99995.00;;;;421050;23;83337;-85
2021/05/25 00:14:42;;;;;;;;;;;12.20;72.90;12.80;99993.00;;;;422149;23;92638;-85
2021/05/25 00:14:54;;;;;;;;;;;12.30;73.00;12.70;99998.00;;;;421010;23;83318;-85
2021/05/25 00:15:10;;;;;;;;;;;12.30;73.00;12.70;99991.00;;;;419582;23;95710;-85
2021/05/25 00:15:24;;;;;;;;;;;12.30;73.00;12.80;100008.00;;;;420909;23;83293;-86
2021/05/25 00:15:36;;;;;;;;;;;12.20;73.20;12.70;99994.00;;;;421618;23;95048;-85
2021/05/25 00:15:52;;;;;;;;;;;12.30;73.40;12.60;99997.00;;;;416462;23;83422;-85
2021/05/25 00:16:04;;;;;;;;;;;12.20;73.20;12.50;100000.00;;;;417630;23;96975;-85
2021/05/25 00:16:16;;;;;;;;;;;12.20;72.80;12.50;100000.00;;;;423092;23;83260;-85
2021/05/25 00:16:28;;;;;;;;;;;12.20;72.70;12.50;99997.00;;;;419474;23;97928;-85
2021/05/25 00:16:40;;;;;;;;;;;12.20;72.60;12.50;99991.00;;;;417054;23;83346;-85
2021/05/25 00:16:52;;;;;;;;;;;12.20;73.20;12.50;99997.00;;;;416090;23;94837;-85
2021/05/25 00:17:04;;;;;;;;;;;12.20;72.80;12.40;99991.00;;;;416988;23;83335;-85
2021/05/25 00:17:15;;;;;;;;;;;12.20;72.80;12.50;99996.00;;;;415908;23;95353;-85
2021/05/25 00:17:27;;;;;;;;;;;12.20;72.80;12.60;99991.00;;;;418846;23;83366;-85
2021/05/25 00:17:39;;;;;;;;;;;12.20;72.90;12.50;99996.00;;;;419442;23;94729;-85
2021/05/25 00:17:51;;;;;;;;;;;12.20;72.70;12.60;99993.00;;;;420720;23;83504;-85
2021/05/25 00:18:04;;;;;;;;;;;12.20;72.80;12.50;99986.00;;;;424212;22;94109;-85
2021/05/25 00:18:15;;;;;;;;;;;12.20;72.80;12.50;99984.00;;;;418661;23;82486;-85
2021/05/25 00:18:27;;;;;;;;;;;12.20;72.80;12.60;99995.00;;;;417399;23;94677;-85
2021/05/25 00:18:39;;;;;;;;;;;12.20;72.90;12.60;99992.00;;;;418762;23;82383;-85
2021/05/25 00:18:52;;;;;;;;;;;12.20;72.90;12.60;99993.00;;;;417624;23;96125;-85
2021/05/25 00:19:04;;;;;;;;;;;12.20;73.00;12.60;99985.00;;;;420637;23;83385;-85
2021/05/25 00:19:16;;;;;;;;;;;12.20;73.40;12.60;99992.00;;;;421703;23;96283;-85
2021/05/25 00:19:28;;;;;;;;;;;12.20;73.50;12.60;99992.00;;;;416579;23;83449;-85
2021/05/25 00:19:40;;;;;;;;;;;12.20;73.60;12.50;99994.00;;;;419645;23;95914;-85
2021/05/25 00:19:52;;;;;;;;;;;12.20;73.30;12.60;99992.00;;;;421007;23;83279;-85
2021/05/25 00:20:06;;;;;;;;;;;12.20;73.20;12.50;99989.00;;;;417664;23;94526;-85
2021/05/25 00:20:19;;;;;;;;;;;12.20;73.10;12.50;99990.00;;;;419063;23;83189;-85
2021/05/25 00:20:31;;;;;;;;;;;12.20;72.90;12.50;99994.00;;;;415442;23;98064;-85
2021/05/25 00:20:42;;;;;;;;;;;12.20;72.80;12.50;99989.00;;;;418748;23;83272;-85
2021/05/25 00:20:54;;;;;;;;;;;12.10;72.60;12.50;99987.00;;;;417638;23;94618;-85
2021/05/25 00:21:06;;;;;;;;;;;12.20;72.70;12.40;99987.00;;;;416695;23;83063;-85
2021/05/25 00:21:18;;;;;;;;;;;12.10;72.70;12.40;99991.00;;;;417703;23;96483;-85
2021/05/25 00:21:30;;;;;;;;;;;12.10;72.70;12.40;99989.00;;;;422795;23;82478;-85
2021/05/25 00:21:42;;;;;;;;;;;12.10;72.70;12.40;99989.00;;;;419609;23;96350;-85
2021/05/25 00:21:53;;;;;;;;;;;12.10;72.80;12.40;99994.00;;;;418551;23;83251;-85
2021/05/25 00:22:05;;;;;;;;;;;12.10;72.80;12.40;99992.00;;;;418027;23;94751;-85
2021/05/25 00:22:17;;;;;;;;;;;12.10;72.90;12.40;99994.00;;;;418984;23;83326;-85
2021/05/25 00:22:30;;;;;;;;;;;12.10;73.00;12.40;99990.00;;;;417999;23;94745;-85
2021/05/25 00:22:42;;;;;;;;;;;12.10;73.00;12.40;99991.00;;;;418729;23;83148;-85
2021/05/25 00:22:54;;;;;;;;;;;12.10;73.20;12.40;99991.00;;;;417823;23;93906;-85
2021/05/25 00:23:05;;;;;;;;;;;12.10;73.20;12.40;99994.00;;;;416512;23;83388;-85
2021/05/25 00:23:17;;;;;;;;;;;12.10;73.10;12.40;99995.00;;;;415787;23;94238;-85
2021/05/25 00:23:29;;;;;;;;;;;12.10;73.10;12.30;99984.00;;;;419057;23;83938;-85
2021/05/25 00:23:41;;;;;;;;;;;12.10;73.10;12.30;99994.00;;;;417714;23;94503;-85
2021/05/25 00:23:52;;;;;;;;;;;12.10;73.20;12.30;99998.00;;;;419044;23;83272;-85
2021/05/25 00:24:04;;;;;;;;;;;12.10;73.30;12.30;99998.00;;;;421786;23;94300;-85
2021/05/25 00:24:16;;;;;;;;;;;12.10;73.40;12.30;99990.00;;;;420692;23;83366;-85
2021/05/25 00:24:28;;;;;;;;;;;12.00;73.40;12.40;99994.00;;;;422030;23;95134;-85
2021/05/25 00:24:40;;;;;;;;;;;12.00;73.30;12.40;99989.00;;;;422869;23;82393;-85
2021/05/25 00:24:51;;;;;;;;;;;12.10;73.40;12.40;99988.00;;;;419955;23;95556;-85
2021/05/25 00:25:04;;;;;;;;;;;12.00;73.60;12.40;99989.00;;;;418652;23;83328;-85
2021/05/25 00:25:16;;;;;;;;;;;12.00;73.70;12.40;99990.00;;;;417562;23;97336;-85
2021/05/25 00:25:31;;;;;;;;;;;12.00;74.40;12.40;99985.00;;;;417058;23;83260;-85
2021/05/25 00:25:43;;;;;;;;;;;12.10;73.80;12.30;99996.00;;;;418210;23;93714;-85
2021/05/25 00:25:55;;;;;;;;;;;12.00;73.60;12.40;99992.00;;;;418866;23;82432;-86
2021/05/25 00:26:06;;;;;;;;;;;12.00;73.50;12.40;99995.00;;;;417474;23;97091;-85
2021/05/25 00:26:18;;;;;;;;;;;12.00;73.60;12.40;99987.00;;;;423083;23;83285;-85
2021/05/25 00:26:30;;;;;;;;;;;12.00;73.60;12.40;99994.00;;;;420107;23;94793;-85
2021/05/25 00:26:42;;;;;;;;;;;12.00;73.50;12.40;99993.00;;;;421300;23;83233;-85
2021/05/25 00:26:54;;;;;;;;;;;12.00;73.50;12.40;99991.00;;;;422267;23;93821;-85
2021/05/25 00:27:06;;;;;;;;;;;12.00;73.90;12.40;99996.00;;;;416886;23;82414;-85
2021/05/25 00:27:17;;;;;;;;;;;12.00;74.60;12.40;99988.00;;;;419949;23;94212;-85
2021/05/25 00:27:29;;;;;;;;;;;12.00;74.00;12.30;99997.00;;;;424870;22;82466;-85
2021/05/25 00:27:42;;;;;;;;;;;12.00;74.10;12.30;100001.00;;;;422252;23;93837;-85
2021/05/25 00:27:54;;;;;;;;;;;12.00;73.40;12.30;100003.00;;;;424816;22;82209;-85
2021/05/25 00:28:06;;;;;;;;;;;12.00;72.90;12.30;99989.00;;;;423788;22;95589;-85
2021/05/25 00:28:20;;;;;;;;;;;12.00;72.70;12.30;99999.00;;;;419112;23;83268;-85
2021/05/25 00:28:32;;;;;;;;;;;12.00;72.50;12.30;99995.00;;;;419851;23;94543;-85
2021/05/25 00:28:44;;;;;;;;;;;12.00;72.50;12.30;99993.00;;;;418866;23;82469;-85
2021/05/25 00:28:56;;;;;;;;;;;12.00;72.50;12.30;99994.00;;;;417855;23;94284;-86
2021/05/25 00:29:08;;;;;;;;;;;12.00;72.80;12.30;99991.00;;;;418624;23;83270;-85
2021/05/25 00:29:20;;;;;;;;;;;12.00;72.90;12.30;99994.00;;;;415521;23;94235;-86
2021/05/25 00:29:31;;;;;;;;;;;12.00;72.80;12.30;99993.00;;;;418837;23;83192;-85
2021/05/25 00:29:43;;;;;;;;;;;12.00;73.00;12.30;99994.00;;;;418051;23;95543;-86
2021/05/25 00:29:55;;;;;;;;;;;12.00;73.10;12.30;100001.00;;;;421234;23;82138;-85
2021/05/25 00:30:08;;;;;;;;;;;12.00;73.10;12.30;99999.00;;;;420208;23;94860;-85
2021/05/25 00:30:20;;;;;;;;;;;12.00;72.90;12.20;99984.00;;;;420793;23;82480;-85
2021/05/25 00:30:31;;;;;;;;;;;12.00;72.80;12.20;99997.00;;;;417476;23;98384;-85
2021/05/25 00:30:43;;;;;;;;;;;12.00;72.90;12.20;99990.00;;;;419069;23;83251;-85
2021/05/25 00:30:55;;;;;;;;;;;12.00;72.90;12.20;99989.00;;;;419710;23;97547;-85
2021/05/25 00:31:07;;;;;;;;;;;11.90;73.20;12.20;99998.00;;;;416738;23;82387;-85
2021/05/25 00:31:19;;;;;;;;;;;11.90;73.20;12.20;99999.00;;;;417962;23;94220;-85
2021/05/25 00:31:30;;;;;;;;;;;11.90;73.10;12.20;99989.00;;;;419152;23;82414;-85
2021/05/25 00:31:42;;;;;;;;;;;11.90;73.10;12.20;99999.00;;;;422099;23;94510;-85
2021/05/25 00:31:54;;;;;;;;;;;11.90;73.10;12.20;99996.00;;;;421144;23;83364;-85
2021/05/25 00:32:06;;;;;;;;;;;11.90;73.30;12.10;100004.00;;;;418098;23;96219;-85
2021/05/25 00:32:18;;;;;;;;;;;11.90;73.30;12.20;99992.00;;;;420583;23;83065;-85
2021/05/25 00:32:29;;;;;;;;;;;11.90;73.30;12.20;100003.00;;;;419627;23;95517;-85
2021/05/25 00:32:42;;;;;;;;;;;11.90;73.50;12.20;99995.00;;;;421131;23;83316;-85
2021/05/25 00:32:54;;;;;;;;;;;11.90;73.70;12.10;100000.00;;;;418088;23;95857;-85
2021/05/25 00:33:05;;;;;;;;;;;11.90;73.40;12.20;99999.00;;;;419219;23;83423;-85
2021/05/25 00:33:17;;;;;;;;;;;11.90;73.50;12.20;99996.00;;;;421792;23;92688;-85
2021/05/25 00:33:29;;;;;;;;;;;11.90;73.40;12.10;99989.00;;;;424752;22;82265;-84
2021/05/25 00:33:41;;;;;;;;;;;11.90;73.40;12.10;100000.00;;;;421646;23;93119;-84
2021/05/25 00:33:53;;;;;;;;;;;11.80;73.30;12.10;100001.00;;;;418822;23;82321;-84
2021/05/25 00:34:04;;;;;;;;;;;11.80;73.30;12.10;99994.00;;;;421876;23;92742;-85
2021/05/25 00:34:16;;;;;;;;;;;11.80;73.30;12.00;100000.00;;;;420855;23;82455;-86
2021/05/25 00:34:28;;;;;;;;;;;11.80;73.50;12.00;99993.00;;;;423802;22;94713;-83
2021/05/25 00:34:39;;;;;;;;;;;11.80;73.40;12.00;99995.00;;;;422717;23;82484;-85
2021/05/25 00:34:51;;;;;;;;;;;11.80;73.30;12.10;99997.00;;;;419565;23;92958;-85
2021/05/25 00:35:04;;;;;;;;;;;11.80;73.30;12.10;99992.00;;;;422690;23;83737;-84
2021/05/25 00:35:16;;;;;;;;;;;11.80;73.40;12.10;99994.00;;;;421709;23;95532;-84
2021/05/25 00:35:28;;;;;;;;;;;11.80;73.30;12.10;100002.00;;;;420639;23;82410;-85
2021/05/25 00:35:41;;;;;;;;;;;11.80;73.20;12.20;99993.00;;;;418101;23;92683;-85
2021/05/25 00:35:55;;;;;;;;;;;11.80;73.90;12.20;99995.00;;;;423153;23;82258;-84
2021/05/25 00:36:10;;;;;;;;;;;11.80;73.60;12.20;100001.00;;;;423727;23;93059;-84
2021/05/25 00:36:24;;;;;;;;;;;11.80;74.20;12.10;100007.00;;;;422593;23;82365;-85
2021/05/25 00:36:36;;;;;;;;;;;11.80;73.80;12.20;99997.00;;;;421701;23;95865;-85
2021/05/25 00:36:48;;;;;;;;;;;11.80;73.80;12.20;100006.00;;;;422707;23;84923;-84
2021/05/25 00:36:59;;;;;;;;;;;11.80;73.80;12.20;100001.00;;;;426002;22;92983;-84
2021/05/25 00:37:11;;;;;;;;;;;11.80;74.10;12.20;100002.00;;;;422797;23;82614;-85
2021/05/25 00:37:23;;;;;;;;;;;11.80;74.00;12.20;99991.00;;;;426334;22;93894;-84
2021/05/25 00:37:35;;;;;;;;;;;11.80;73.90;12.20;100002.00;;;;422548;23;83346;-85
2021/05/25 00:37:47;;;;;;;;;;;11.80;74.00;12.20;99989.00;;;;419956;23;92638;-84
2021/05/25 00:37:58;;;;;;;;;;;11.70;73.80;12.30;100004.00;;;;420741;23;82355;-85
2021/05/25 00:38:11;;;;;;;;;;;11.80;73.90;12.30;100000.00;;;;419876;23;95406;-85
2021/05/25 00:38:22;;;;;;;;;;;11.80;73.90;12.40;100003.00;;;;424552;23;82743;-85
2021/05/25 00:38:34;;;;;;;;;;;11.80;73.90;12.40;100000.00;;;;421579;23;97201;-85
2021/05/25 00:38:46;;;;;;;;;;;11.80;73.80;12.50;100000.00;;;;422790;23;82370;-85
2021/05/25 00:38:57;;;;;;;;;;;11.80;73.80;12.40;99999.00;;;;421532;23;92980;-85
2021/05/25 00:39:09;;;;;;;;;;;11.80;73.90;12.40;99996.00;;;;422862;22;82291;-84
2021/05/25 00:39:21;;;;;;;;;;;11.80;74.00;12.40;100001.00;;;;423577;23;92727;-85
2021/05/25 00:39:33;;;;;;;;;;;11.90;73.90;12.40;100000.00;;;;424604;23;82468;-85
2021/05/25 00:39:44;;;;;;;;;;;11.90;73.90;12.40;100004.00;;;;424197;23;92734;-84
2021/05/25 00:39:56;;;;;;;;;;;11.90;74.00;12.50;99999.00;;;;424599;23;82454;-84
2021/05/25 00:40:09;;;;;;;;;;;11.90;73.90;12.50;100007.00;;;;417214;23;92845;-85
2021/05/25 00:40:21;;;;;;;;;;;11.90;74.00;12.50;99999.00;;;;422799;23;83325;-86
2021/05/25 00:40:33;;;;;;;;;;;11.90;74.00;12.40;100000.00;;;;421985;23;95123;-86
2021/05/25 00:40:45;;;;;;;;;;;11.90;74.20;12.40;99999.00;;;;420674;23;82424;-85
2021/05/25 00:40:57;;;;;;;;;;;11.90;74.10;12.40;99992.00;;;;417437;23;94128;-85
2021/05/25 00:41:08;;;;;;;;;;;11.90;74.10;12.40;100000.00;;;;418597;23;82514;-86
2021/05/25 00:41:21;;;;;;;;;;;11.90;74.00;12.40;99997.00;;;;420121;23;93734;-85
2021/05/25 00:41:33;;;;;;;;;;;11.90;74.10;12.50;99996.00;;;;421081;23;83207;-85
2021/05/25 00:41:45;;;;;;;;;;;11.90;74.00;12.40;99998.00;;;;417652;23;94460;-85
2021/05/25 00:41:56;;;;;;;;;;;11.90;74.00;12.40;99998.00;;;;416621;23;83358;-85
2021/05/25 00:42:08;;;;;;;;;;;11.90;74.00;12.40;99999.00;;;;417694;23;94347;-85
2021/05/25 00:42:20;;;;;;;;;;;11.90;74.50;12.40;100004.00;;;;422711;23;83354;-85
2021/05/25 00:42:32;;;;;;;;;;;11.90;73.80;12.40;100008.00;;;;417550;23;94386;-85
2021/05/25 00:42:45;;;;;;;;;;;11.90;73.90;12.30;100005.00;;;;425022;22;83343;-86
2021/05/25 00:42:57;;;;;;;;;;;11.90;74.40;12.30;100012.00;;;;419654;23;95630;-85
2021/05/25 00:43:08;;;;;;;;;;;11.90;74.20;12.30;100004.00;;;;422631;23;83928;-85
2021/05/25 00:43:21;;;;;;;;;;;11.90;74.10;12.30;100001.00;;;;421989;23;93982;-84
2021/05/25 00:43:33;;;;;;;;;;;11.90;74.00;12.20;100006.00;;;;422702;23;83393;-85
2021/05/25 00:43:45;;;;;;;;;;;11.90;74.00;12.20;100004.00;;;;419992;23;94058;-85
2021/05/25 00:43:56;;;;;;;;;;;11.90;74.00;12.20;100005.00;;;;418671;23;83392;-85
2021/05/25 00:44:09;;;;;;;;;;;11.90;73.90;12.20;100003.00;;;;417721;23;94660;-85
2021/05/25 00:44:21;;;;;;;;;;;11.90;74.00;12.30;100008.00;;;;418968;23;83273;-85
2021/05/25 00:44:33;;;;;;;;;;;11.90;74.00;12.30;100010.00;;;;421725;23;95039;-85
2021/05/25 00:44:44;;;;;;;;;;;11.90;74.10;12.40;100004.00;;;;416968;23;83283;-85
2021/05/25 00:44:56;;;;;;;;;;;11.90;74.00;12.40;100007.00;;;;417669;23;95797;-85
2021/05/25 00:45:08;;;;;;;;;;;11.90;73.90;12.50;100001.00;;;;416611;23;83332;-85
2021/05/25 00:45:20;;;;;;;;;;;11.90;73.90;12.50;100003.00;;;;416133;23;93071;-85
2021/05/25 00:45:32;;;;;;;;;;;11.90;73.90;12.50;100006.00;;;;418787;23;83420;-85
2021/05/25 00:45:44;;;;;;;;;;;11.90;74.00;12.50;100006.00;;;;417598;23;94223;-85
2021/05/25 00:45:56;;;;;;;;;;;11.90;74.20;12.50;100005.00;;;;421042;23;83254;-85
2021/05/25 00:46:07;;;;;;;;;;;11.90;74.20;12.50;100009.00;;;;420101;23;94142;-85
2021/05/25 00:46:19;;;;;;;;;;;11.90;74.20;12.40;100003.00;;;;418616;23;82438;-85
2021/05/25 00:46:31;;;;;;;;;;;11.90;74.20;12.40;100006.00;;;;419600;23;95098;-85
2021/05/25 00:46:43;;;;;;;;;;;11.90;74.20;12.40;100007.00;;;;418703;23;82416;-85
2021/05/25 00:46:54;;;;;;;;;;;12.00;74.50;12.40;100008.00;;;;417768;23;93856;-86
2021/05/25 00:47:06;;;;;;;;;;;11.90;74.50;12.40;100006.00;;;;416456;23;83398;-85
2021/05/25 00:47:31;;;;;;;;;;;12.00;74.50;12.60;100010.00;;;;415997;23;94084;-85
2021/05/25 00:47:43;;;;;;;;;;;11.90;74.40;12.50;100003.00;;;;422537;23;83358;-85
2021/05/25 00:47:55;;;;;;;;;;;12.00;74.30;12.40;100003.00;;;;421921;23;97442;-85
2021/05/25 00:48:07;;;;;;;;;;;12.00;74.10;12.40;100004.00;;;;418526;23;82435;-85
2021/05/25 00:48:19;;;;;;;;;;;12.00;74.20;12.50;100009.00;;;;419638;23;95425;-85
2021/05/25 00:48:31;;;;;;;;;;;12.00;74.20;12.40;100001.00;;;;420460;23;83444;-85
2021/05/25 00:48:42;;;;;;;;;;;12.00;74.20;12.40;100003.00;;;;421698;23;95129;-85
2021/05/25 00:48:54;;;;;;;;;;;12.00;74.40;12.40;100009.00;;;;420824;23;82459;-85
2021/05/25 00:49:06;;;;;;;;;;;12.00;74.30;12.40;100007.00;;;;419754;23;94165;-85
2021/05/25 00:49:18;;;;;;;;;;;12.00;74.40;12.40;100006.00;;;;420647;23;83397;-85
2021/05/25 00:49:29;;;;;;;;;;;12.00;74.30;12.40;100004.00;;;;418042;23;93971;-85
2021/05/25 00:49:41;;;;;;;;;;;12.00;74.20;12.30;100000.00;;;;422684;23;83239;-85
2021/05/25 00:49:54;;;;;;;;;;;12.00;74.40;12.40;100012.00;;;;421695;23;94738;-85
2021/05/25 00:50:11;;;;;;;;;;;12.00;75.10;12.40;100008.00;;;;420782;23;82284;-85
2021/05/25 00:50:28;;;;;;;;;;;12.00;74.50;12.30;100012.00;;;;418049;23;94154;-85
2021/05/25 00:50:39;;;;;;;;;;;12.00;74.60;12.40;100005.00;;;;422935;23;83335;-85
2021/05/25 00:50:53;;;;;;;;;;;12.00;74.50;12.40;100003.00;;;;424085;22;94531;-85
2021/05/25 00:51:05;;;;;;;;;;;12.00;74.50;12.30;100016.00;;;;420635;23;83349;-86
2021/05/25 00:51:16;;;;;;;;;;;12.00;74.70;12.40;100012.00;;;;419998;23;93866;-85
2021/05/25 00:51:28;;;;;;;;;;;12.00;74.70;12.30;100012.00;;;;420778;23;83442;-85
2021/05/25 00:51:40;;;;;;;;;;;12.00;74.60;12.30;100013.00;;;;418053;23;92707;-85
2021/05/25 00:51:52;;;;;;;;;;;12.00;74.70;12.40;100013.00;;;;416595;23;83251;-85
2021/05/25 00:52:04;;;;;;;;;;;12.00;74.60;12.40;100005.00;;;;416103;23;93400;-85
2021/05/25 00:52:16;;;;;;;;;;;12.00;74.90;12.40;100006.00;;;;418520;23;83414;-85
2021/05/25 00:52:27;;;;;;;;;;;12.00;75.00;12.50;100010.00;;;;422091;23;93848;-85
2021/05/25 00:52:50;;;;;;;;;;;12.00;74.90;12.40;100015.00;;;;418552;23;83356;-85
2021/05/25 00:53:02;;;;;;;;;;;12.00;74.90;12.40;100009.00;;;;417524;23;96688;-85
2021/05/25 00:53:14;;;;;;;;;;;12.00;74.80;12.40;100005.00;;;;418502;23;83438;-85
2021/05/25 00:53:27;;;;;;;;;;;12.00;74.70;12.50;100017.00;;;;416148;23;93900;-86
2021/05/25 00:53:39;;;;;;;;;;;12.00;74.70;12.40;100012.00;;;;416635;23;82399;-86
2021/05/25 00:53:50;;;;;;;;;;;12.00;74.80;12.40;100010.00;;;;417912;23;95822;-86
2021/05/25 00:54:03;;;;;;;;;;;12.00;74.90;12.40;100006.00;;;;418405;23;83875;-84
2021/05/25 00:54:14;;;;;;;;;;;12.00;74.80;12.40;100020.00;;;;415683;23;93095;-85
2021/05/25 00:54:26;;;;;;;;;;;12.00;74.70;12.50;100009.00;;;;418554;23;83236;-85
2021/05/25 00:54:38;;;;;;;;;;;12.00;74.70;12.60;100010.00;;;;421778;23;94022;-85
2021/05/25 00:54:50;;;;;;;;;;;12.00;74.80;12.50;100017.00;;;;422969;23;83367;-86
2021/05/25 00:55:03;;;;;;;;;;;12.00;74.70;12.50;100011.00;;;;419801;23;96272;-86
2021/05/25 00:55:26;;;;;;;;;;;12.00;74.60;12.60;100013.00;;;;420903;23;83415;-85
2021/05/25 00:55:38;;;;;;;;;;;12.00;74.70;12.50;100013.00;;;;417650;23;94444;-86
2021/05/25 00:55:51;;;;;;;;;;;12.00;74.60;12.40;100013.00;;;;419020;23;83341;-85
2021/05/25 00:56:03;;;;;;;;;;;12.00;74.70;12.40;100003.00;;;;420080;23;93813;-85
2021/05/25 00:56:15;;;;;;;;;;;12.00;74.50;12.50;100015.00;;;;420665;23;83424;-85
2021/05/25 00:56:27;;;;;;;;;;;12.00;75.20;12.50;100012.00;;;;419262;23;95739;-84
2021/05/25 00:56:38;;;;;;;;;;;12.00;74.50;12.40;100017.00;;;;418900;23;83379;-85
2021/05/25 00:56:50;;;;;;;;;;;12.00;74.60;12.50;100017.00;;;;419894;23;93998;-85
2021/05/25 00:57:02;;;;;;;;;;;12.00;74.40;12.60;100013.00;;;;418387;23;83532;-85
2021/05/25 00:57:14;;;;;;;;;;;12.00;74.50;12.50;100013.00;;;;417528;23;98505;-86
2021/05/25 00:57:26;;;;;;;;;;;12.00;74.30;12.60;100012.00;;;;423010;23;83323;-85
2021/05/25 00:57:37;;;;;;;;;;;12.00;74.40;12.60;100010.00;;;;419685;23;94090;-85
2021/05/25 00:57:49;;;;;;;;;;;12.00;74.50;12.60;100010.00;;;;420942;23;83783;-85
2021/05/25 00:58:02;;;;;;;;;;;12.00;74.70;12.60;100012.00;;;;419638;23;94356;-85
2021/05/25 00:58:14;;;;;;;;;;;12.00;74.70;12.60;100011.00;;;;425254;22;82331;-85
2021/05/25 00:58:28;;;;;;;;;;;12.00;74.50;12.60;100013.00;;;;423616;22;96452;-85
2021/05/25 00:58:39;;;;;;;;;;;12.10;74.50;12.40;100012.00;;;;424840;22;82371;-85
2021/05/25 00:58:51;;;;;;;;;;;12.10;74.50;12.50;100006.00;;;;424133;22;94155;-85
2021/05/25 00:59:03;;;;;;;;;;;12.10;74.60;12.50;100012.00;;;;418916;23;83356;-85
2021/05/25 00:59:15;;;;;;;;;;;12.00;74.60;12.60;100019.00;;;;417451;23;96755;-85
2021/05/25 00:59:28;;;;;;;;;;;12.10;74.70;12.60;100012.00;;;;422949;23;83415;-85
2021/05/25 00:59:40;;;;;;;;;;;12.10;74.80;12.50;100009.00;;;;419641;23;97189;-85
2021/05/25 00:59:51;;;;;;;;;;;12.10;74.60;12.40;100014.00;;;;420544;23;83516;-85
2021/05/25 01:00:04;;;;;;;;;;;12.10;74.60;12.40;100016.00;;;;417253;23;94202;-85